Time;durP1;ratioP1;P1;durP2;ratioP2;P2;SDS_P1;SDS_P2;PMS_P1;PMS_P2;Temp;Humidity;BMP_temperature;BMP_pressure;BME280_temperature;BME280_humidity;BME280_pressure;Samples;Min_cycle;Max_cycle;Signal;HPM_P1;HPM_P2
2023/04/01 00:01:57;;;;;;;40.83;16.33;;;;;;;11.36;74.20;94309.75;5011483;28;20237;-72
2023/04/01 00:04:22;;;;;;;33.90;16.40;;;;;;;11.22;73.18;94305.66;4998586;28;20942;-73
2023/04/01 00:06:48;;;;;;;38.73;16.07;;;;;;;11.11;72.97;94311.63;5028738;28;20232;-73
2023/04/01 00:09:13;;;;;;;35.37;15.43;;;;;;;11.10;73.40;94312.66;5019385;28;20233;-73
2023/04/01 00:11:40;;;;;;;41.70;16.03;;;;;;;10.98;74.89;94309.16;5016625;28;20264;-73
2023/04/01 00:14:06;;;;;;;34.23;15.23;;;;;;;11.11;73.70;94322.91;5003266;28;20230;-73
2023/04/01 00:16:32;;;;;;;36.77;15.50;;;;;;;11.07;74.60;94318.31;5018830;28;20241;-73
2023/04/01 00:18:57;;;;;;;32.37;13.70;;;;;;;10.94;73.47;94314.00;5019116;28;20651;-72
2023/04/01 00:21:22;;;;;;;31.33;13.07;;;;;;;10.92;75.13;94320.47;5015627;28;20626;-73
2023/04/01 00:23:49;;;;;;;32.10;13.80;;;;;;;11.08;74.04;94317.31;5007084;28;20230;-73
2023/04/01 00:26:18;;;;;;;31.60;13.20;;;;;;;11.01;75.41;94317.34;5022014;28;20233;-73
2023/04/01 00:28:44;;;;;;;28.33;12.70;;;;;;;11.08;74.92;94312.84;5021657;28;20774;-73
2023/04/01 00:31:10;;;;;;;26.83;11.33;;;;;;;11.04;72.96;94313.50;5015652;28;20295;-73
2023/04/01 00:33:35;;;;;;;25.93;10.47;;;;;;;10.87;72.71;94294.94;5018337;28;20845;-73
2023/04/01 00:36:11;;;;;;;25.70;10.67;;;;;;;10.93;73.03;94309.00;5020279;28;20283;-73
2023/04/01 00:38:37;;;;;;;25.13;11.30;;;;;;;11.03;73.27;94304.88;5032539;28;20324;-73
2023/04/01 00:41:03;;;;;;;26.07;11.23;;;;;;;11.00;73.10;94302.69;5013906;28;20317;-73
2023/04/01 00:43:28;;;;;;;23.73;11.53;;;;;;;11.06;72.63;94296.56;5019184;28;20258;-74
2023/04/01 00:45:54;;;;;;;26.40;11.50;;;;;;;11.13;73.46;94291.28;5032634;28;21502;-74
2023/04/01 00:48:22;;;;;;;25.70;12.07;;;;;;;11.15;74.03;94282.16;5005372;28;20790;-73
2023/04/01 00:50:59;;;;;;;23.27;11.60;;;;;;;11.01;74.77;94285.94;5004999;28;20623;-73
2023/04/01 00:53:25;;;;;;;25.27;11.23;;;;;;;10.95;75.66;94265.06;5021060;28;20409;-72
2023/04/01 00:56:16;;;;;;;27.10;11.30;;;;;;;10.90;75.81;94272.75;5017934;28;20626;-73
2023/04/01 00:58:44;;;;;;;24.83;11.27;;;;;;;10.91;76.15;94274.38;5029665;28;20225;-73
2023/04/01 01:01:09;;;;;;;27.10;11.43;;;;;;;10.83;77.43;94260.56;5014830;28;20815;-73
2023/04/01 01:03:35;;;;;;;22.70;10.93;;;;;;;10.88;76.82;94248.63;5018627;28;20225;-73
2023/04/01 01:06:07;;;;;;;26.10;11.13;;;;;;;10.95;77.18;94246.72;5025957;28;20295;-73
2023/04/01 01:09:07;;;;;;;24.27;10.57;;;;;;;10.97;76.00;94249.94;5013128;28;20334;-73
2023/04/01 01:11:59;;;;;;;23.33;10.40;;;;;;;10.86;77.77;94242.81;5037000;28;20816;-73
2023/04/01 01:14:29;;;;;;;22.20;10.33;;;;;;;10.67;77.30;94234.97;5030239;28;20725;-73
2023/04/01 01:17:02;;;;;;;22.50;9.70;;;;;;;10.87;76.33;94231.34;5023661;28;20245;-73
2023/04/01 01:19:52;;;;;;;25.10;10.47;;;;;;;10.68;77.74;94238.34;5015514;28;20225;-74
2023/04/01 01:22:39;;;;;;;22.37;10.30;;;;;;;10.67;77.76;94234.16;5041844;28;21059;-73
2023/04/01 01:25:16;;;;;;;23.00;10.17;;;;;;;10.66;77.95;94229.91;5013650;28;20233;-73
2023/04/01 01:27:42;;;;;;;24.70;9.93;;;;;;;10.74;77.89;94221.78;5031911;28;20298;-73
2023/04/01 01:30:10;;;;;;;22.67;9.73;;;;;;;10.74;77.05;94225.22;5015391;28;20704;-73
2023/04/01 01:32:35;;;;;;;22.37;10.30;;;;;;;10.80;76.49;94215.69;5035049;28;20226;-73
2023/04/01 01:35:35;;;;;;;28.87;12.13;;;;;;;10.75;76.69;94205.88;5031201;28;20242;-73
2023/04/01 01:38:03;;;;;;;20.00;9.83;;;;;;;10.89;76.01;94213.59;5021407;28;20238;-73
2023/04/01 01:40:29;;;;;;;20.63;8.80;;;;;;;10.82;75.77;94203.16;5007985;28;20659;-73
2023/04/01 01:42:56;;;;;;;21.43;8.30;;;;;;;10.85;74.82;94207.97;4998431;28;20268;-73
2023/04/01 01:45:23;;;;;;;22.90;8.53;;;;;;;10.92;75.20;94208.69;5003901;28;20692;-73
2023/04/01 01:47:48;;;;;;;20.63;8.33;;;;;;;10.91;75.34;94211.53;5014101;28;20238;-73
2023/04/01 01:50:14;;;;;;;22.13;8.10;;;;;;;10.84;74.57;94207.16;5016455;28;20234;-73
2023/04/01 01:52:39;;;;;;;15.93;8.10;;;;;;;10.87;74.74;94207.78;5005253;28;20411;-73
2023/04/01 01:55:28;;;;;;;16.53;8.23;;;;;;;10.86;74.78;94201.72;5002929;28;20230;-73
2023/04/01 01:57:54;;;;;;;17.40;8.13;;;;;;;10.87;75.70;94197.31;5028015;28;20264;-74
2023/04/01 02:00:20;;;;;;;20.03;8.17;;;;;;;10.82;74.57;94188.28;5032672;28;20235;-72
2023/04/01 02:02:46;;;;;;;19.30;8.10;;;;;;;10.73;75.98;94204.47;5004848;28;20238;-73
2023/04/01 02:05:17;;;;;;;18.47;7.90;;;;;;;10.84;76.09;94206.38;5017192;28;20309;-72
2023/04/01 02:07:43;;;;;;;21.07;8.37;;;;;;;10.98;74.54;94193.94;5015842;28;20776;-73
2023/04/01 02:10:09;;;;;;;20.80;7.83;;;;;;;10.79;75.93;94183.47;5008519;28;20320;-73
2023/04/01 02:12:34;;;;;;;16.93;7.93;;;;;;;10.69;77.20;94185.81;5008122;28;20473;-73
2023/04/01 02:15:08;;;;;;;18.97;8.13;;;;;;;10.62;76.26;94179.84;5030991;28;20229;-73
2023/04/01 02:17:34;;;;;;;15.90;7.90;;;;;;;10.67;76.79;94185.25;5013952;28;20419;-73
2023/04/01 02:20:06;;;;;;;18.73;7.70;;;;;;;10.72;75.55;94180.13;5018515;28;20229;-73
2023/04/01 02:22:34;;;;;;;16.80;7.63;;;;;;;10.76;74.51;94170.03;5013307;28;20235;-73
2023/04/01 02:25:04;;;;;;;16.73;7.70;;;;;;;10.83;75.25;94174.19;5009655;28;20238;-73
2023/04/01 02:27:30;;;;;;;17.63;7.87;;;;;;;10.75;75.70;94165.81;4996314;28;20232;-73
2023/04/01 02:29:55;;;;;;;16.50;7.40;;;;;;;10.80;75.23;94179.03;5007503;28;20225;-73
2023/04/01 02:32:21;;;;;;;17.47;7.43;;;;;;;10.96;75.68;94177.66;5015999;28;20627;-73
2023/04/01 02:34:46;;;;;;;21.47;8.13;;;;;;;11.12;74.40;94184.91;5004643;28;20233;-73
2023/04/01 02:37:12;;;;;;;18.53;7.90;;;;;;;11.19;74.79;94185.63;5016320;28;20271;-73
2023/04/01 02:39:38;;;;;;;17.70;7.93;;;;;;;11.09;74.40;94177.47;5010583;28;20271;-73
2023/04/01 02:42:04;;;;;;;15.10;7.53;;;;;;;10.95;76.11;94183.91;5015478;28;20237;-73
2023/04/01 02:44:30;;;;;;;17.93;7.90;;;;;;;11.02;75.55;94190.66;5034178;28;20249;-73
2023/04/01 02:46:55;;;;;;;18.53;7.87;;;;;;;10.92;77.38;94194.81;5002237;28;20237;-73
2023/04/01 02:49:21;;;;;;;20.07;7.83;;;;;;;10.99;75.72;94198.16;4998575;28;20305;-73
2023/04/01 02:51:46;;;;;;;17.70;8.47;;;;;;;10.84;76.82;94196.69;5021234;28;20241;-73
2023/04/01 02:54:12;;;;;;;16.60;7.70;;;;;;;10.77;77.38;94195.97;5030515;28;20715;-73
2023/04/01 02:56:37;;;;;;;16.13;7.70;;;;;;;10.72;78.42;94200.28;5027951;28;20229;-73
2023/04/01 02:59:03;;;;;;;27.97;10.30;;;;;;;10.70;76.73;94202.28;5035421;28;20229;-73
2023/04/01 03:01:28;;;;;;;27.47;11.47;;;;;;;10.73;75.93;94212.34;5016361;28;20245;-74
2023/04/01 03:03:54;;;;;;;27.90;11.10;;;;;;;10.75;76.33;94221.56;5019116;28;20242;-73
2023/04/01 03:06:19;;;;;;;26.27;11.37;;;;;;;10.62;76.94;94216.50;5022182;28;20261;-72
2023/04/01 03:08:45;;;;;;;26.07;11.37;;;;;;;10.45;77.78;94223.28;5004983;28;20292;-72
2023/04/01 03:11:10;;;;;;;29.40;11.83;;;;;;;10.48;76.75;94216.81;4995760;28;20294;-73
2023/04/01 03:13:36;;;;;;;28.80;10.83;;;;;;;10.52;76.23;94216.19;5012061;28;20324;-73
2023/04/01 03:16:01;;;;;;;23.00;10.27;;;;;;;10.60;75.73;94222.94;5011064;28;20218;-73
2023/04/01 03:18:27;;;;;;;22.93;10.73;;;;;;;10.70;74.88;94212.75;5012284;28;20308;-73
2023/04/01 03:20:52;;;;;;;25.20;10.13;;;;;;;10.76;74.30;94215.31;5017196;28;20277;-72
2023/04/01 03:23:20;;;;;;;22.53;10.27;;;;;;;10.82;74.09;94218.88;5000584;28;20226;-73
2023/04/01 03:25:46;;;;;;;21.63;10.70;;;;;;;10.79;74.36;94220.09;5015604;28;20261;-73
2023/04/01 03:28:12;;;;;;;21.53;10.30;;;;;;;10.72;74.28;94222.00;5017506;28;20276;-73
2023/04/01 03:30:38;;;;;;;23.73;11.07;;;;;;;10.71;74.49;94230.88;5014296;28;20275;-73
2023/04/01 03:33:04;;;;;;;20.43;10.67;;;;;;;10.81;74.76;94233.00;5014262;28;20685;-73
2023/04/01 03:35:29;;;;;;;25.57;11.73;;;;;;;10.78;75.32;94223.75;5028783;28;20224;-73
2023/04/01 03:37:55;;;;;;;26.13;10.97;;;;;;;10.80;76.05;94226.94;5015582;28;20730;-73
2023/04/01 03:40:21;;;;;;;33.23;11.63;;;;;;;10.93;75.92;94220.78;5015295;28;20320;-73
2023/04/01 03:42:46;;;;;;;28.07;11.23;;;;;;;10.84;76.76;94219.47;4999346;28;20371;-73
2023/04/01 03:45:12;;;;;;;26.97;12.00;;;;;;;10.83;77.46;94208.22;5031050;28;20226;-73
2023/04/01 03:47:38;;;;;;;26.87;11.40;;;;;;;10.66;78.82;94195.91;5024035;28;20681;-73
2023/04/01 03:50:04;;;;;;;27.57;11.17;;;;;;;10.52;80.08;94186.59;5005730;28;20288;-72
2023/04/01 03:52:29;;;;;;;28.87;11.53;;;;;;;10.34;81.88;94168.28;5019713;28;20230;-72
2023/04/01 03:54:55;;;;;;;28.20;11.47;;;;;;;10.38;80.61;94151.94;5017048;28;20672;-72
2023/04/01 03:57:20;;;;;;;25.37;10.97;;;;;;;10.47;81.74;94142.78;4999720;28;20249;-73
2023/04/01 03:59:46;;;;;;;27.97;11.30;;;;;;;10.54;81.95;94134.84;5043384;28;20284;-73
2023/04/01 04:02:11;;;;;;;23.27;10.80;;;;;;;10.42;80.83;94126.94;5031324;28;20846;-73
2023/04/01 04:04:37;;;;;;;25.70;10.37;;;;;;;10.41;80.15;94112.22;5006998;28;20237;-73
2023/04/01 04:07:02;;;;;;;22.77;10.13;;;;;;;10.51;81.25;94122.19;5019006;28;20248;-72
2023/04/01 04:09:30;;;;;;;25.57;10.43;;;;;;;10.65;80.04;94113.19;5021255;28;20226;-73
2023/04/01 04:11:55;;;;;;;27.40;12.37;;;;;;;10.57;79.44;94103.81;5016416;28;20245;-72
2023/04/01 04:14:22;;;;;;;24.07;10.67;;;;;;;10.60;79.98;94108.59;5008067;28;20230;-72
2023/04/01 04:16:47;;;;;;;22.37;10.33;;;;;;;10.53;80.33;94092.19;5036154;28;20235;-72
2023/04/01 04:19:13;;;;;;;22.40;10.17;;;;;;;10.28;77.79;94090.66;5005931;28;20238;-72
2023/04/01 04:21:40;;;;;;;20.20;9.03;;;;;;;10.55;76.94;94098.03;5009311;28;20271;-72
2023/04/01 04:24:05;;;;;;;27.10;9.00;;;;;;;10.72;76.62;94092.97;5008536;28;20234;-72
2023/04/01 04:26:31;;;;;;;21.97;9.10;;;;;;;10.72;75.52;94087.75;5015324;28;20225;-72
2023/04/01 04:28:56;;;;;;;21.47;8.70;;;;;;;10.74;74.56;94073.44;5034688;28;20242;-72
2023/04/01 04:31:23;;;;;;;26.37;9.10;;;;;;;10.63;74.97;94063.69;5026076;28;20821;-72
2023/04/01 04:33:48;;;;;;;21.30;9.10;;;;;;;10.66;74.98;94068.50;5017445;28;20222;-73
2023/04/01 04:36:14;;;;;;;21.50;9.50;;;;;;;10.62;75.65;94072.56;5019083;28;20610;-72
2023/04/01 04:38:40;;;;;;;19.97;9.40;;;;;;;10.56;76.03;94059.56;5016420;28;20225;-72
2023/04/01 04:41:16;;;;;;;19.53;9.27;;;;;;;10.44;76.78;94069.16;5019984;28;20237;-73
2023/04/01 04:43:42;;;;;;;20.43;9.60;;;;;;;10.47;76.57;94066.91;5016980;28;20221;-72
2023/04/01 04:46:10;;;;;;;23.03;8.90;;;;;;;10.42;77.07;94058.13;5005695;28;20264;-72
2023/04/01 04:48:36;;;;;;;27.67;9.47;;;;;;;10.55;77.63;94056.16;5024315;28;20283;-72
2023/04/01 04:51:02;;;;;;;21.90;8.50;;;;;;;10.46;78.04;94056.69;5017087;28;20672;-72
2023/04/01 04:53:27;;;;;;;17.80;8.40;;;;;;;10.50;77.64;94055.22;5025172;28;20252;-72
2023/04/01 04:55:53;;;;;;;21.03;8.77;;;;;;;10.58;76.69;94040.00;5036147;28;20323;-72
2023/04/01 04:58:18;;;;;;;21.80;8.10;;;;;;;10.69;75.23;94041.09;5002942;28;20312;-72
2023/04/01 05:00:44;;;;;;;20.73;8.03;;;;;;;10.53;75.97;94034.63;5016427;28;20237;-72
2023/04/01 05:03:10;;;;;;;19.03;7.50;;;;;;;10.42;75.44;94038.00;5008624;28;20278;-73
2023/04/01 05:05:35;;;;;;;15.40;7.40;;;;;;;10.47;74.88;94040.75;5033209;28;20225;-72
2023/04/01 05:08:01;;;;;;;17.67;7.73;;;;;;;10.71;76.53;94039.84;5015576;28;20742;-73
2023/04/01 05:10:26;;;;;;;16.63;7.13;;;;;;;10.86;74.12;94038.63;5023702;28;20229;-73
2023/04/01 05:12:52;;;;;;;17.73;6.93;;;;;;;10.83;73.17;94021.56;5015433;28;20252;-73
2023/04/01 05:15:17;;;;;;;17.47;7.23;;;;;;;10.53;74.61;94008.47;5027769;28;20661;-73
2023/04/01 05:17:43;;;;;;;16.97;7.43;;;;;;;10.66;75.04;94016.16;4988478;28;20234;-73
2023/04/01 05:20:09;;;;;;;16.63;7.30;;;;;;;10.68;75.24;94005.44;4998534;28;20237;-73
2023/04/01 05:22:35;;;;;;;16.90;7.87;;;;;;;10.68;74.93;94008.88;4984116;28;20256;-73
2023/04/01 05:25:00;;;;;;;17.73;7.60;;;;;;;10.82;74.35;93999.81;4986687;28;20747;-74
2023/04/01 05:27:28;;;;;;;16.03;7.40;;;;;;;11.03;73.00;93990.66;4997533;28;20628;-74
2023/04/01 05:29:54;;;;;;;19.93;7.43;;;;;;;10.91;73.80;93989.03;5006569;28;20249;-73
2023/04/01 05:32:19;;;;;;;26.87;8.70;;;;;;;10.92;73.26;93996.66;5020447;28;20313;-73
2023/04/01 05:34:45;;;;;;;17.70;7.57;;;;;;;11.06;73.15;93995.44;5033608;28;20232;-73
2023/04/01 05:37:10;;;;;;;21.63;7.67;;;;;;;11.06;73.15;93994.63;5034676;28;20388;-73
2023/04/01 05:39:39;;;;;;;21.93;8.10;;;;;;;11.12;73.34;94009.47;5034541;28;20237;-71
2023/04/01 05:42:07;;;;;;;20.10;7.97;;;;;;;11.26;73.40;94009.03;5032340;28;20238;-73
2023/04/01 05:44:33;;;;;;;22.03;8.10;;;;;;;11.47;71.21;94003.25;5003261;28;20246;-72
2023/04/01 05:46:59;;;;;;;19.37;7.90;;;;;;;11.58;71.33;94004.28;5003792;28;20695;-72
2023/04/01 05:49:24;;;;;;;18.70;7.30;;;;;;;11.73;68.83;93993.34;5031905;28;20325;-73
2023/04/01 05:51:51;;;;;;;33.30;13.80;;;;;;;11.89;68.75;93990.81;5034675;28;20237;-73
2023/04/01 05:54:16;;;;;;;21.40;10.30;;;;;;;12.16;67.86;93996.38;5016232;28;20233;-74
2023/04/01 05:56:42;;;;;;;22.77;9.70;;;;;;;12.32;65.76;93987.78;5025045;28;20221;-74
2023/04/01 05:59:09;;;;;;;20.60;9.20;;;;;;;12.51;66.47;93983.16;5008815;28;20229;-73
2023/04/01 06:01:35;;;;;;;16.20;7.20;;;;;;;12.85;65.25;93984.81;5007068;28;20225;-73
2023/04/01 06:04:00;;;;;;;18.10;6.63;;;;;;;12.90;61.36;93981.50;5018059;28;20269;-73
2023/04/01 06:06:27;;;;;;;18.37;5.80;;;;;;;12.87;61.28;93977.53;5032475;28;20229;-73
2023/04/01 06:08:53;;;;;;;17.23;6.13;;;;;;;13.08;60.57;93984.75;5012921;28;20271;-73
2023/04/01 06:11:24;;;;;;;14.03;5.37;;;;;;;13.37;59.36;93994.13;5012115;28;20533;-72
2023/04/01 06:13:58;;;;;;;21.17;9.27;;;;;;;13.47;58.26;93986.41;5027984;28;20240;-72
2023/04/01 06:16:43;;;;;;;26.53;11.93;;;;;;;13.38;58.93;93982.59;5030017;28;20245;-72
2023/04/01 06:19:17;;;;;;;20.03;8.17;;;;;;;13.17;59.94;93982.50;5029621;28;20242;-73
2023/04/01 06:22:03;;;;;;;16.10;5.23;;;;;;;12.61;61.33;93994.63;5026101;28;20321;-73
2023/04/01 06:25:05;;;;;;;15.33;6.47;;;;;;;12.88;62.71;93983.56;4998034;28;20641;-73
2023/04/01 06:27:53;;;;;;;13.23;6.00;;;;;;;13.06;63.52;93992.06;5021487;28;20240;-73
2023/04/01 06:30:43;;;;;;;16.50;6.53;;;;;;;13.24;61.88;93997.09;5025706;28;20292;-73
2023/04/01 06:33:33;;;;;;;13.13;5.63;;;;;;;13.11;61.92;93984.25;5028751;28;20328;-73
2023/04/01 06:36:23;;;;;;;14.80;5.60;;;;;;;13.23;60.83;93979.72;5039927;28;20248;-73
2023/04/01 06:38:51;;;;;;;12.33;5.37;;;;;;;12.91;62.19;93978.63;5015605;28;20692;-73
2023/04/01 06:41:37;;;;;;;14.17;5.20;;;;;;;13.09;61.29;93967.94;5026864;28;20234;-73
2023/04/01 06:44:32;;;;;;;16.17;5.93;;;;;;;12.75;63.18;93964.44;5009667;28;20238;-72
2023/04/01 06:46:59;;;;;;;15.97;6.00;;;;;;;12.81;63.08;93962.69;5027526;28;20248;-73
2023/04/01 06:49:55;;;;;;;16.93;6.40;;;;;;;13.06;64.08;93960.56;5031990;28;20259;-73
2023/04/01 06:52:46;;;;;;;12.40;5.63;;;;;;;13.19;63.91;93962.84;5030746;28;20226;-73
2023/04/01 06:55:42;;;;;;;12.70;5.10;;;;;;;12.91;63.93;93948.94;5030898;28;20242;-72
2023/04/01 06:58:21;;;;;;;12.70;5.47;;;;;;;13.09;64.54;93928.53;5033182;28;20314;-74
2023/04/01 07:00:49;;;;;;;16.57;5.97;;;;;;;13.03;64.16;93933.91;5007961;28;20315;-72
2023/04/01 07:03:32;;;;;;;12.80;6.20;;;;;;;13.21;64.04;93924.00;5015744;28;20241;-72
2023/04/01 07:06:01;;;;;;;18.57;6.07;;;;;;;13.09;64.56;93935.59;5014504;28;20283;-73
2023/04/01 07:08:27;;;;;;;13.23;5.73;;;;;;;13.34;64.69;93943.91;5007562;28;20661;-72
2023/04/01 07:11:03;;;;;;;14.77;5.90;;;;;;;13.44;64.14;93951.94;5018007;28;20342;-73
2023/04/01 07:13:41;;;;;;;20.90;5.60;;;;;;;13.47;64.80;93925.16;5024883;28;20320;-72
2023/04/01 07:16:24;;;;;;;12.80;5.23;;;;;;;13.83;66.04;93919.34;5004984;28;20237;-73
2023/04/01 07:19:25;;;;;;;14.57;5.63;;;;;;;13.88;64.23;93926.50;5014788;28;20230;-73
2023/04/01 07:22:11;;;;;;;13.50;5.40;;;;;;;13.85;63.75;93911.22;5016161;28;20232;-73
2023/04/01 07:24:37;;;;;;;14.37;5.77;;;;;;;13.83;65.41;93929.06;5031033;28;20233;-73
2023/04/01 07:27:05;;;;;;;21.67;6.20;;;;;;;13.84;64.55;93935.94;5020060;28;20248;-73
2023/04/01 07:29:30;;;;;;;14.93;5.97;;;;;;;13.77;65.81;93930.84;5014056;28;20707;-73
2023/04/01 07:32:02;;;;;;;18.33;6.07;;;;;;;13.74;67.20;93936.59;5015214;28;20242;-73
2023/04/01 07:34:27;;;;;;;13.30;5.20;;;;;;;13.89;64.69;93938.63;5028963;28;20344;-73
2023/04/01 07:37:01;;;;;;;16.87;5.67;;;;;;;13.93;65.26;93935.25;5031380;28;20689;-73
2023/04/01 07:39:45;;;;;;;18.17;5.93;;;;;;;14.08;65.75;93924.13;5029409;28;20325;-73
2023/04/01 07:42:21;;;;;;;12.93;5.70;;;;;;;14.34;64.99;93931.31;5032954;28;20233;-73
2023/04/01 07:44:46;;;;;;;12.10;5.00;;;;;;;14.42;63.31;93932.72;5023379;28;20260;-74
2023/04/01 07:47:30;;;;;;;16.30;5.30;;;;;;;14.41;63.14;93915.31;5031744;28;20707;-73
2023/04/01 07:49:58;;;;;;;14.50;5.47;;;;;;;14.50;62.90;93919.91;5028324;28;20262;-73
2023/04/01 07:52:26;;;;;;;15.97;5.40;;;;;;;14.49;62.29;93918.31;5030426;28;21182;-72
2023/04/01 07:55:30;;;;;;;9.70;5.00;;;;;;;14.56;62.30;93908.38;5033604;28;20234;-73
2023/04/01 07:58:10;;;;;;;11.10;5.10;;;;;;;14.40;62.53;93906.63;5029453;28;20233;-74
2023/04/01 08:00:50;;;;;;;14.20;5.00;;;;;;;14.39;63.11;93910.31;5020400;28;20328;-74
2023/04/01 08:03:45;;;;;;;16.90;4.53;;;;;;;14.34;63.23;93918.16;5033338;28;20267;-73
2023/04/01 08:06:37;;;;;;;18.93;4.83;;;;;;;14.33;63.93;93903.38;5009896;28;20237;-73
2023/04/01 08:09:24;;;;;;;19.37;4.90;;;;;;;14.39;61.77;93897.16;5025521;28;20230;-74
2023/04/01 08:12:02;;;;;;;11.50;4.50;;;;;;;14.51;65.22;93895.16;5030707;28;20226;-74
2023/04/01 08:14:44;;;;;;;10.33;4.10;;;;;;;14.61;61.54;93889.22;5021844;28;20248;-74
2023/04/01 08:17:20;;;;;;;11.43;4.60;;;;;;;14.65;60.92;93890.28;5023238;28;20230;-74
2023/04/01 08:20:00;;;;;;;12.67;4.40;;;;;;;14.72;61.62;93877.72;5015969;28;20234;-74
2023/04/01 08:22:29;;;;;;;14.33;4.67;;;;;;;14.83;61.15;93871.50;5030898;28;20233;-73
2023/04/01 08:24:55;;;;;;;12.33;5.00;;;;;;;14.93;59.51;93868.94;5028273;28;20240;-73
2023/04/01 08:27:36;;;;;;;13.03;4.77;;;;;;;15.05;58.79;93869.56;5006384;28;20226;-73
2023/04/01 08:30:25;;;;;;;16.60;5.47;;;;;;;15.17;59.26;93867.53;5017420;28;20240;-73
2023/04/01 08:32:55;;;;;;;17.47;5.83;;;;;;;15.24;58.97;93859.41;4999835;28;20256;-73
2023/04/01 08:35:36;;;;;;;14.40;6.00;;;;;;;15.36;59.67;93852.91;5002811;28;20238;-73
2023/04/01 08:38:13;;;;;;;14.70;5.60;;;;;;;15.45;58.41;93840.06;5020549;28;20786;-74
2023/04/01 08:41:07;;;;;;;15.23;6.00;;;;;;;15.44;57.77;93828.72;5041838;28;20702;-72
2023/04/01 08:43:42;;;;;;;14.87;6.13;;;;;;;15.61;59.23;93818.00;5019562;28;20224;-73
2023/04/01 08:46:22;;;;;;;13.67;5.20;;;;;;;15.58;59.13;93800.03;5035997;28;20313;-74
2023/04/01 08:48:47;;;;;;;15.90;5.40;;;;;;;15.57;58.78;93803.72;5034435;28;20230;-73
2023/04/01 08:51:50;;;;;;;13.13;4.23;;;;;;;15.88;54.95;93808.06;5032495;28;20240;-73
2023/04/01 08:54:29;;;;;;;13.60;4.10;;;;;;;15.91;54.32;93794.34;5030369;28;20793;-73
2023/04/01 08:57:30;;;;;;;11.40;4.17;;;;;;;16.06;54.23;93785.69;5029927;28;20240;-74
2023/04/01 09:00:15;;;;;;;10.03;3.60;;;;;;;16.40;52.67;93799.22;5002907;28;20238;-73
2023/04/01 09:02:52;;;;;;;11.43;3.40;;;;;;;16.80;52.05;93807.19;5031881;28;20230;-73
2023/04/01 09:05:48;;;;;;;13.50;3.67;;;;;;;16.87;50.37;93818.28;5029696;28;20761;-74
2023/04/01 09:08:17;;;;;;;9.20;3.70;;;;;;;16.86;49.65;93821.97;5032330;28;20234;-74
2023/04/01 09:11:19;;;;;;;12.90;3.73;;;;;;;16.88;50.09;93813.81;5034176;28;20650;-74
2023/04/01 09:14:06;;;;;;;8.03;3.20;;;;;;;17.06;49.96;93811.41;5030461;28;20325;-74
2023/04/01 09:16:38;;;;;;;10.37;3.50;;;;;;;16.85;48.00;93815.13;5012906;28;20234;-73
2023/04/01 09:19:21;;;;;;;9.90;3.60;;;;;;;16.89;48.21;93810.88;4998342;28;20238;-73
2023/04/01 09:21:49;;;;;;;12.77;3.57;;;;;;;16.96;48.47;93803.47;5014008;28;20233;-73
2023/04/01 09:24:36;;;;;;;8.93;3.40;;;;;;;17.07;48.61;93799.78;5031550;28;20264;-73
2023/04/01 09:27:05;;;;;;;9.80;3.70;;;;;;;17.16;49.23;93794.75;5033408;28;20270;-73
2023/04/01 09:30:02;;;;;;;14.50;3.90;;;;;;;17.02;47.82;93789.22;5016246;28;20238;-74
2023/04/01 09:32:51;;;;;;;7.63;3.30;;;;;;;17.09;47.32;93778.34;5029839;28;20635;-73
2023/04/01 09:35:41;;;;;;;12.93;3.67;;;;;;;16.94;45.85;93784.44;5030541;28;20288;-74
2023/04/01 09:38:22;;;;;;;9.63;3.80;;;;;;;16.86;46.70;93774.41;5028648;28;20783;-73
2023/04/01 09:40:55;;;;;;;11.53;4.20;;;;;;;16.88;49.50;93767.03;5030835;28;20328;-74
2023/04/01 09:43:58;;;;;;;9.83;4.20;;;;;;;16.91;50.25;93771.75;5020036;28;20238;-74
2023/04/01 09:46:32;;;;;;;8.33;4.10;;;;;;;16.84;51.70;93755.38;5032213;28;20233;-73
2023/04/01 09:49:21;;;;;;;9.33;4.50;;;;;;;16.87;51.00;93748.78;5013096;28;20233;-75
2023/04/01 09:51:56;;;;;;;13.13;5.20;;;;;;;16.95;51.12;93737.66;5026228;28;20556;-74
2023/04/01 09:54:49;;;;;;;13.37;5.03;;;;;;;16.97;49.63;93738.19;5008849;28;20957;-74
2023/04/01 09:57:14;;;;;;;14.23;5.23;;;;;;;16.99;49.75;93734.22;5011629;28;20243;-72
2023/04/01 09:59:59;;;;;;;14.10;4.43;;;;;;;16.93;50.64;93726.59;5014197;28;20287;-73
2023/04/01 10:03:02;;;;;;;19.73;5.07;;;;;;;17.05;48.74;93724.44;5012867;28;20313;-74
2023/04/01 10:05:52;;;;;;;15.17;4.63;;;;;;;16.99;48.32;93721.00;5008394;28;20269;-73
2023/04/01 10:08:42;;;;;;;12.13;4.43;;;;;;;16.95;48.83;93719.16;5013536;28;20226;-74
2023/04/01 10:11:32;;;;;;;15.60;4.30;;;;;;;17.19;47.90;93714.88;5009285;28;20753;-74
2023/04/01 10:14:27;;;;;;;9.20;4.10;;;;;;;17.10;49.59;93719.91;5034735;28;20316;-74
2023/04/01 10:16:55;;;;;;;8.00;3.90;;;;;;;16.80;49.43;93706.78;5029846;28;20244;-74
2023/04/01 10:19:50;;;;;;;12.67;4.40;;;;;;;16.86;49.88;93705.69;5032769;28;20229;-74
2023/04/01 10:22:21;;;;;;;12.97;4.10;;;;;;;16.88;51.25;93705.44;5028647;28;20237;-75
2023/04/01 10:24:53;;;;;;;10.10;4.60;;;;;;;16.86;51.10;93704.91;5028738;28;20762;-74
2023/04/01 10:27:49;;;;;;;10.17;4.10;;;;;;;16.60;50.45;93706.78;5027989;28;20234;-74
2023/04/01 10:30:50;;;;;;;14.00;4.40;;;;;;;16.60;49.91;93690.94;5029254;28;20737;-74
2023/04/01 10:33:50;;;;;;;10.07;4.33;;;;;;;16.53;49.84;93683.28;5030284;28;20234;-74
2023/04/01 10:36:34;;;;;;;10.83;4.57;;;;;;;16.46;50.01;93703.06;4991636;28;20242;-74
2023/04/01 10:39:19;;;;;;;13.47;4.43;;;;;;;16.39;50.60;93697.28;5035246;28;20234;-74
2023/04/01 10:41:54;;;;;;;13.17;4.70;;;;;;;16.49;51.47;93694.63;5028571;28;20229;-74
2023/04/01 10:44:25;;;;;;;12.27;4.70;;;;;;;16.52;52.12;93694.94;5032620;28;20233;-74
2023/04/01 10:47:09;;;;;;;11.83;4.63;;;;;;;16.37;52.14;93675.63;5029629;28;20295;-74
2023/04/01 10:49:43;;;;;;;10.47;4.30;;;;;;;16.32;51.98;93667.69;5030294;28;20291;-74
2023/04/01 10:52:42;;;;;;;10.10;4.30;;;;;;;16.22;51.67;93663.22;5030131;28;20294;-74
2023/04/01 10:55:39;;;;;;;10.17;4.87;;;;;;;16.27;52.10;93665.84;5034505;28;20241;-74
2023/04/01 10:58:21;;;;;;;12.77;4.93;;;;;;;16.24;52.36;93657.69;5031691;28;20903;-73
2023/04/01 11:01:01;;;;;;;11.63;5.03;;;;;;;16.26;52.28;93661.66;5022338;28;20248;-74
2023/04/01 11:03:26;;;;;;;16.57;5.47;;;;;;;16.23;52.29;93661.38;5032121;28;20317;-73
2023/04/01 11:06:25;;;;;;;23.83;6.03;;;;;;;16.18;54.81;93644.50;5032842;28;20278;-74
2023/04/01 11:09:16;;;;;;;16.90;6.37;;;;;;;16.18;54.52;93641.84;5027965;28;20731;-75
2023/04/01 11:12:06;;;;;;;13.43;5.83;;;;;;;16.26;52.98;93631.81;5030071;28;20368;-74
2023/04/01 11:14:41;;;;;;;12.77;6.17;;;;;;;16.34;56.27;93644.47;5029241;28;20730;-74
2023/04/01 11:17:14;;;;;;;15.27;6.40;;;;;;;16.39;54.59;93652.38;5033543;28;20279;-73
2023/04/01 11:19:52;;;;;;;17.20;6.20;;;;;;;16.33;51.79;93638.41;5008793;28;20233;-75
2023/04/01 11:22:42;;;;;;;15.40;6.10;;;;;;;16.35;53.96;93648.69;5030551;28;20260;-74
2023/04/01 11:25:42;;;;;;;15.60;6.03;;;;;;;16.33;53.59;93646.31;5029718;28;20238;-75
2023/04/01 11:28:12;;;;;;;15.63;6.33;;;;;;;16.30;51.39;93656.63;5004346;28;20364;-74
2023/04/01 11:31:23;;;;;;;15.20;6.50;;;;;;;16.23;52.87;93683.28;5013106;28;20257;-74
2023/04/01 11:33:48;;;;;;;12.53;5.57;;;;;;;16.11;53.13;93698.59;5030056;28;20455;-74
2023/04/01 11:37:08;;;;;;;10.57;2.90;;;;;;;16.03;51.04;93721.03;5030494;28;20943;-74
2023/04/01 11:39:54;;;;;;;14.07;2.80;;;;;;;15.71;61.59;93735.47;5030299;28;20240;-74
2023/04/01 11:42:41;;;;;;;8.97;2.60;;;;;;;15.47;63.04;93745.69;5044241;28;20239;-74
2023/04/01 11:45:18;;;;;;;8.43;2.60;;;;;;;15.30;63.39;93774.03;5029531;28;20229;-73
2023/04/01 11:48:11;;;;;;;10.50;2.80;;;;;;;15.07;66.85;93813.97;5030574;28;20698;-73
2023/04/01 11:50:37;;;;;;;11.97;3.13;;;;;;;14.58;72.77;93839.66;5026135;28;20324;-73
2023/04/01 11:53:21;;;;;;;9.77;3.30;;;;;;;14.00;77.59;93845.63;5010260;28;20264;-73
2023/04/01 11:56:17;;;;;;;11.13;3.10;;;;;;;13.48;84.30;93897.84;5029179;28;20233;-73
2023/04/01 11:59:04;;;;;;;7.43;3.07;;;;;;;13.18;87.84;93900.03;5031604;28;20255;-73